sensor_id;sensor_type;location;lat;lon;timestamp;pressure;altitude;pressure_sealevel;temperature;humidity
41706;BME280;27385;51.096;17.190;2022-10-31T00:00:14;100628.76;;;8.95;85.58
41706;BME280;27385;51.096;17.190;2022-10-31T00:03:05;100629.43;;;8.92;85.73
41706;BME280;27385;51.096;17.190;2022-10-31T00:05:37;100632.66;;;8.88;85.81
41706;BME280;27385;51.096;17.190;2022-10-31T00:08:11;100638.59;;;8.84;86.05
41706;BME280;27385;51.096;17.190;2022-10-31T00:10:43;100636.27;;;8.80;85.94
41706;BME280;27385;51.096;17.190;2022-10-31T00:13:16;100631.38;;;8.79;86.07
41706;BME280;27385;51.096;17.190;2022-10-31T00:15:47;100626.89;;;8.77;86.02
41706;BME280;27385;51.096;17.190;2022-10-31T00:18:19;100630.72;;;8.75;86.01
41706;BME280;27385;51.096;17.190;2022-10-31T00:20:50;100631.35;;;8.72;86.08
41706;BME280;27385;51.096;17.190;2022-10-31T00:23:28;100630.78;;;8.68;86.07
41706;BME280;27385;51.096;17.190;2022-10-31T00:26:03;100634.48;;;8.65;86.03
41706;BME280;27385;51.096;17.190;2022-10-31T00:28:35;100632.20;;;8.60;86.17
41706;BME280;27385;51.096;17.190;2022-10-31T00:31:07;100631.27;;;8.57;86.17
41706;BME280;27385;51.096;17.190;2022-10-31T00:33:40;100633.42;;;8.55;86.17
41706;BME280;27385;51.096;17.190;2022-10-31T00:36:13;100635.52;;;8.52;86.23
41706;BME280;27385;51.096;17.190;2022-10-31T00:38:46;100635.91;;;8.49;86.16
41706;BME280;27385;51.096;17.190;2022-10-31T00:41:18;100636.71;;;8.46;86.21
41706;BME280;27385;51.096;17.190;2022-10-31T00:43:49;100638.47;;;8.44;86.38
41706;BME280;27385;51.096;17.190;2022-10-31T00:46:20;100636.58;;;8.41;86.36
41706;BME280;27385;51.096;17.190;2022-10-31T00:48:51;100631.49;;;8.39;86.34
41706;BME280;27385;51.096;17.190;2022-10-31T00:51:23;100629.29;;;8.37;86.34
41706;BME280;27385;51.096;17.190;2022-10-31T00:53:54;100623.83;;;8.34;86.32
41706;BME280;27385;51.096;17.190;2022-10-31T00:56:26;100626.56;;;8.31;86.33
41706;BME280;27385;51.096;17.190;2022-10-31T00:58:57;100626.51;;;8.28;86.39
41706;BME280;27385;51.096;17.190;2022-10-31T01:01:28;100633.27;;;8.25;86.44
41706;BME280;27385;51.096;17.190;2022-10-31T01:04:00;100635.02;;;8.23;86.47
41706;BME280;27385;51.096;17.190;2022-10-31T01:06:31;100635.69;;;8.20;86.70
41706;BME280;27385;51.096;17.190;2022-10-31T01:09:02;100638.00;;;8.17;86.49
41706;BME280;27385;51.096;17.190;2022-10-31T01:11:34;100641.69;;;8.16;86.53
41706;BME280;27385;51.096;17.190;2022-10-31T01:14:05;100640.02;;;8.16;86.65
41706;BME280;27385;51.096;17.190;2022-10-31T01:16:36;100639.87;;;8.16;86.69
41706;BME280;27385;51.096;17.190;2022-10-31T01:19:09;100638.89;;;8.17;86.89
41706;BME280;27385;51.096;17.190;2022-10-31T01:21:40;100639.11;;;8.17;86.77
41706;BME280;27385;51.096;17.190;2022-10-31T01:24:11;100643.41;;;8.17;86.79
41706;BME280;27385;51.096;17.190;2022-10-31T01:26:43;100639.59;;;8.15;86.72
41706;BME280;27385;51.096;17.190;2022-10-31T01:29:14;100639.98;;;8.13;86.85
41706;BME280;27385;51.096;17.190;2022-10-31T01:31:45;100642.23;;;8.12;86.69
41706;BME280;27385;51.096;17.190;2022-10-31T01:34:17;100639.65;;;8.11;86.96
41706;BME280;27385;51.096;17.190;2022-10-31T01:36:49;100644.02;;;8.09;86.78
41706;BME280;27385;51.096;17.190;2022-10-31T01:39:21;100645.69;;;8.07;87.10
41706;BME280;27385;51.096;17.190;2022-10-31T01:41:54;100640.08;;;8.03;86.93
41706;BME280;27385;51.096;17.190;2022-10-31T01:44:54;100639.85;;;8.01;86.92
41706;BME280;27385;51.096;17.190;2022-10-31T01:47:37;100641.04;;;7.99;86.96
41706;BME280;27385;51.096;17.190;2022-10-31T01:50:20;100639.73;;;7.98;87.17
41706;BME280;27385;51.096;17.190;2022-10-31T01:52:54;100640.63;;;7.97;87.14
41706;BME280;27385;51.096;17.190;2022-10-31T01:55:28;100641.30;;;7.96;87.18
41706;BME280;27385;51.096;17.190;2022-10-31T01:58:04;100638.98;;;7.95;87.15
41706;BME280;27385;51.096;17.190;2022-10-31T02:00:37;100640.34;;;7.92;87.25
41706;BME280;27385;51.096;17.190;2022-10-31T02:03:08;100642.02;;;7.90;87.49
41706;BME280;27385;51.096;17.190;2022-10-31T02:05:40;100644.63;;;7.88;87.39
41706;BME280;27385;51.096;17.190;2022-10-31T02:08:16;100646.66;;;7.84;87.39
41706;BME280;27385;51.096;17.190;2022-10-31T02:10:49;100651.27;;;7.81;87.41
41706;BME280;27385;51.096;17.190;2022-10-31T02:13:21;100648.46;;;7.78;87.45
41706;BME280;27385;51.096;17.190;2022-10-31T02:15:55;100656.50;;;7.75;87.44
41706;BME280;27385;51.096;17.190;2022-10-31T02:18:29;100654.86;;;7.72;87.32
41706;BME280;27385;51.096;17.190;2022-10-31T02:21:07;100655.65;;;7.70;87.34
41706;BME280;27385;51.096;17.190;2022-10-31T02:27:12;100661.56;;;7.65;87.32
41706;BME280;27385;51.096;17.190;2022-10-31T02:30:08;100659.73;;;7.62;87.21
41706;BME280;27385;51.096;17.190;2022-10-31T02:32:55;100658.07;;;7.58;87.31
41706;BME280;27385;51.096;17.190;2022-10-31T02:35:33;100658.64;;;7.55;87.28
41706;BME280;27385;51.096;17.190;2022-10-31T02:38:18;100658.48;;;7.50;87.44
41706;BME280;27385;51.096;17.190;2022-10-31T02:40:56;100655.81;;;7.49;87.65
41706;BME280;27385;51.096;17.190;2022-10-31T02:43:38;100654.98;;;7.50;87.95
41706;BME280;27385;51.096;17.190;2022-10-31T02:46:16;100662.84;;;7.50;88.17
41706;BME280;27385;51.096;17.190;2022-10-31T02:48:52;100660.22;;;7.51;88.11
41706;BME280;27385;51.096;17.190;2022-10-31T02:51:25;100665.16;;;7.52;88.25
41706;BME280;27385;51.096;17.190;2022-10-31T02:53:57;100657.65;;;7.51;88.17
41706;BME280;27385;51.096;17.190;2022-10-31T02:56:28;100660.15;;;7.50;88.18
41706;BME280;27385;51.096;17.190;2022-10-31T02:59:01;100659.46;;;7.49;88.08
41706;BME280;27385;51.096;17.190;2022-10-31T03:02:07;100656.11;;;7.48;88.07
41706;BME280;27385;51.096;17.190;2022-10-31T03:04:53;100654.92;;;7.45;88.04
41706;BME280;27385;51.096;17.190;2022-10-31T03:07:38;100658.03;;;7.45;88.16
41706;BME280;27385;51.096;17.190;2022-10-31T03:10:16;100658.40;;;7.46;88.22
41706;BME280;27385;51.096;17.190;2022-10-31T03:13:01;100664.39;;;7.45;88.26
41706;BME280;27385;51.096;17.190;2022-10-31T03:15:39;100664.94;;;7.43;88.20
41706;BME280;27385;51.096;17.190;2022-10-31T03:18:15;100666.23;;;7.40;88.05
41706;BME280;27385;51.096;17.190;2022-10-31T03:20:53;100674.38;;;7.38;88.13
41706;BME280;27385;51.096;17.190;2022-10-31T03:23:29;100675.61;;;7.36;88.13
41706;BME280;27385;51.096;17.190;2022-10-31T03:26:03;100675.88;;;7.33;88.16
41706;BME280;27385;51.096;17.190;2022-10-31T03:28:41;100679.16;;;7.29;88.13
41706;BME280;27385;51.096;17.190;2022-10-31T03:31:15;100681.86;;;7.27;88.21
41706;BME280;27385;51.096;17.190;2022-10-31T03:33:49;100680.58;;;7.25;88.15
41706;BME280;27385;51.096;17.190;2022-10-31T03:36:22;100683.64;;;7.21;88.19
41706;BME280;27385;51.096;17.190;2022-10-31T03:38:54;100684.41;;;7.19;88.13
41706;BME280;27385;51.096;17.190;2022-10-31T03:41:30;100686.23;;;7.17;88.16
41706;BME280;27385;51.096;17.190;2022-10-31T03:44:09;100686.48;;;7.14;88.19
41706;BME280;27385;51.096;17.190;2022-10-31T03:46:43;100689.95;;;7.12;88.01
41706;BME280;27385;51.096;17.190;2022-10-31T03:49:15;100697.02;;;7.09;88.07
41706;BME280;27385;51.096;17.190;2022-10-31T03:51:51;100694.88;;;7.07;88.06
41706;BME280;27385;51.096;17.190;2022-10-31T03:54:30;100697.08;;;7.05;88.09
41706;BME280;27385;51.096;17.190;2022-10-31T03:57:05;100693.45;;;7.02;88.14
41706;BME280;27385;51.096;17.190;2022-10-31T03:59:40;100697.98;;;7.01;88.08
41706;BME280;27385;51.096;17.190;2022-10-31T04:02:15;100697.21;;;6.99;88.07
41706;BME280;27385;51.096;17.190;2022-10-31T04:04:50;100697.64;;;6.97;88.02
41706;BME280;27385;51.096;17.190;2022-10-31T04:07:24;100697.25;;;6.94;88.05
41706;BME280;27385;51.096;17.190;2022-10-31T04:09:57;100695.45;;;6.94;88.08
41706;BME280;27385;51.096;17.190;2022-10-31T04:12:32;100697.58;;;6.92;88.10
41706;BME280;27385;51.096;17.190;2022-10-31T04:15:07;100697.00;;;6.90;88.13
41706;BME280;27385;51.096;17.190;2022-10-31T04:17:41;100696.33;;;6.88;88.19
41706;BME280;27385;51.096;17.190;2022-10-31T04:20:18;100696.76;;;6.88;88.32
41706;BME280;27385;51.096;17.190;2022-10-31T04:22:49;100700.35;;;6.87;88.25
41706;BME280;27385;51.096;17.190;2022-10-31T04:25:20;100705.09;;;6.85;88.13
41706;BME280;27385;51.096;17.190;2022-10-31T04:27:51;100699.23;;;6.84;88.25
41706;BME280;27385;51.096;17.190;2022-10-31T04:30:23;100698.23;;;6.83;88.27
41706;BME280;27385;51.096;17.190;2022-10-31T04:32:54;100695.83;;;6.82;88.33
41706;BME280;27385;51.096;17.190;2022-10-31T04:35:26;100699.48;;;6.81;88.38
41706;BME280;27385;51.096;17.190;2022-10-31T04:37:57;100702.63;;;6.79;88.49
41706;BME280;27385;51.096;17.190;2022-10-31T04:40:29;100702.77;;;6.80;88.49
41706;BME280;27385;51.096;17.190;2022-10-31T04:43:00;100703.98;;;6.79;88.44
41706;BME280;27385;51.096;17.190;2022-10-31T04:45:32;100700.16;;;6.80;88.47
41706;BME280;27385;51.096;17.190;2022-10-31T04:48:04;100699.41;;;6.78;88.35
41706;BME280;27385;51.096;17.190;2022-10-31T04:50:37;100706.53;;;6.76;88.48
41706;BME280;27385;51.096;17.190;2022-10-31T04:53:08;100706.02;;;6.75;88.43
41706;BME280;27385;51.096;17.190;2022-10-31T04:55:39;100707.33;;;6.74;88.45
41706;BME280;27385;51.096;17.190;2022-10-31T04:58:10;100708.05;;;6.70;88.42
41706;BME280;27385;51.096;17.190;2022-10-31T05:00:42;100705.45;;;6.68;88.59
41706;BME280;27385;51.096;17.190;2022-10-31T05:03:13;100712.25;;;6.65;88.50
41706;BME280;27385;51.096;17.190;2022-10-31T05:05:44;100714.24;;;6.65;88.49
41706;BME280;27385;51.096;17.190;2022-10-31T05:08:15;100716.03;;;6.63;88.59
41706;BME280;27385;51.096;17.190;2022-10-31T05:10:47;100718.41;;;6.63;88.53
41706;BME280;27385;51.096;17.190;2022-10-31T05:13:18;100717.35;;;6.61;88.52
41706;BME280;27385;51.096;17.190;2022-10-31T05:15:50;100717.17;;;6.60;88.46
41706;BME280;27385;51.096;17.190;2022-10-31T05:18:21;100719.86;;;6.57;88.63
41706;BME280;27385;51.096;17.190;2022-10-31T05:20:52;100719.08;;;6.57;88.63
41706;BME280;27385;51.096;17.190;2022-10-31T05:23:24;100719.27;;;6.55;88.65
41706;BME280;27385;51.096;17.190;2022-10-31T05:25:56;100722.11;;;6.53;88.61
41706;BME280;27385;51.096;17.190;2022-10-31T05:28:28;100724.67;;;6.52;88.62
41706;BME280;27385;51.096;17.190;2022-10-31T05:30:59;100725.84;;;6.50;88.62
41706;BME280;27385;51.096;17.190;2022-10-31T05:33:30;100723.50;;;6.49;88.71
41706;BME280;27385;51.096;17.190;2022-10-31T05:36:02;100728.52;;;6.48;88.76
41706;BME280;27385;51.096;17.190;2022-10-31T05:38:33;100728.36;;;6.45;88.66
41706;BME280;27385;51.096;17.190;2022-10-31T05:41:04;100728.00;;;6.43;88.83
41706;BME280;27385;51.096;17.190;2022-10-31T05:43:35;100729.50;;;6.41;88.85
41706;BME280;27385;51.096;17.190;2022-10-31T05:46:07;100731.52;;;6.40;88.72
41706;BME280;27385;51.096;17.190;2022-10-31T05:48:39;100732.02;;;6.40;88.72
41706;BME280;27385;51.096;17.190;2022-10-31T05:51:10;100729.07;;;6.39;88.83
41706;BME280;27385;51.096;17.190;2022-10-31T05:53:43;100733.73;;;6.40;88.89
41706;BME280;27385;51.096;17.190;2022-10-31T05:56:14;100734.27;;;6.40;88.91
41706;BME280;27385;51.096;17.190;2022-10-31T05:58:46;100738.80;;;6.40;88.83
41706;BME280;27385;51.096;17.190;2022-10-31T06:01:17;100736.51;;;6.40;88.90
41706;BME280;27385;51.096;17.190;2022-10-31T06:03:49;100735.92;;;6.39;88.87
41706;BME280;27385;51.096;17.190;2022-10-31T06:06:21;100736.02;;;6.38;88.92
41706;BME280;27385;51.096;17.190;2022-10-31T06:08:52;100734.07;;;6.37;89.04
41706;BME280;27385;51.096;17.190;2022-10-31T06:11:23;100732.07;;;6.37;89.18
41706;BME280;27385;51.096;17.190;2022-10-31T06:13:55;100735.70;;;6.37;89.32
41706;BME280;27385;51.096;17.190;2022-10-31T06:16:26;100736.06;;;6.39;89.28
41706;BME280;27385;51.096;17.190;2022-10-31T06:18:58;100735.96;;;6.40;89.37
41706;BME280;27385;51.096;17.190;2022-10-31T06:21:29;100742.75;;;6.41;89.44
41706;BME280;27385;51.096;17.190;2022-10-31T06:24:00;100746.11;;;6.42;89.62
41706;BME280;27385;51.096;17.190;2022-10-31T06:26:31;100748.91;;;6.44;89.60
41706;BME280;27385;51.096;17.190;2022-10-31T06:29:03;100751.02;;;6.45;89.68
41706;BME280;27385;51.096;17.190;2022-10-31T06:31:35;100748.00;;;6.48;89.87
41706;BME280;27385;51.096;17.190;2022-10-31T06:34:06;100755.43;;;6.52;89.98
41706;BME280;27385;51.096;17.190;2022-10-31T06:36:37;100756.40;;;6.54;89.92
41706;BME280;27385;51.096;17.190;2022-10-31T06:39:10;100759.16;;;6.58;90.02
41706;BME280;27385;51.096;17.190;2022-10-31T06:41:41;100764.29;;;6.61;90.27
41706;BME280;27385;51.096;17.190;2022-10-31T06:44:13;100762.30;;;6.65;90.48
41706;BME280;27385;51.096;17.190;2022-10-31T06:46:44;100767.77;;;6.70;90.54
41706;BME280;27385;51.096;17.190;2022-10-31T06:49:16;100766.66;;;6.75;90.71
41706;BME280;27385;51.096;17.190;2022-10-31T06:51:52;100765.60;;;6.82;90.93
41706;BME280;27385;51.096;17.190;2022-10-31T06:54:23;100769.70;;;6.88;91.25
41706;BME280;27385;51.096;17.190;2022-10-31T06:56:54;100766.37;;;6.93;91.30
41706;BME280;27385;51.096;17.190;2022-10-31T06:59:26;100770.77;;;6.99;91.77
41706;BME280;27385;51.096;17.190;2022-10-31T07:01:59;100772.15;;;7.06;91.85
41706;BME280;27385;51.096;17.190;2022-10-31T07:04:30;100772.23;;;7.11;92.00
41706;BME280;27385;51.096;17.190;2022-10-31T07:07:01;100775.63;;;7.17;92.21
41706;BME280;27385;51.096;17.190;2022-10-31T07:09:33;100778.48;;;7.25;92.66
41706;BME280;27385;51.096;17.190;2022-10-31T07:12:04;100782.77;;;7.33;93.28
41706;BME280;27385;51.096;17.190;2022-10-31T07:14:36;100782.43;;;7.41;93.69
41706;BME280;27385;51.096;17.190;2022-10-31T07:17:07;100785.45;;;7.51;94.02
41706;BME280;27385;51.096;17.190;2022-10-31T07:19:39;100788.16;;;7.61;94.18
41706;BME280;27385;51.096;17.190;2022-10-31T07:22:10;100788.69;;;7.69;94.28
41706;BME280;27385;51.096;17.190;2022-10-31T07:24:41;100791.01;;;7.76;94.18
41706;BME280;27385;51.096;17.190;2022-10-31T07:27:13;100791.36;;;7.84;94.50
41706;BME280;27385;51.096;17.190;2022-10-31T07:29:47;100796.04;;;7.94;94.98
41706;BME280;27385;51.096;17.190;2022-10-31T07:32:18;100797.30;;;8.03;95.15
41706;BME280;27385;51.096;17.190;2022-10-31T07:34:50;100792.15;;;8.13;95.62
41706;BME280;27385;51.096;17.190;2022-10-31T07:37:21;100797.29;;;8.23;95.81
41706;BME280;27385;51.096;17.190;2022-10-31T07:39:53;100794.40;;;8.32;96.11
41706;BME280;27385;51.096;17.190;2022-10-31T07:42:24;100794.94;;;8.41;96.22
41706;BME280;27385;51.096;17.190;2022-10-31T07:44:55;100795.54;;;8.51;96.64
41706;BME280;27385;51.096;17.190;2022-10-31T07:47:27;100802.59;;;8.62;96.99
41706;BME280;27385;51.096;17.190;2022-10-31T07:49:58;100801.70;;;8.71;96.99
41706;BME280;27385;51.096;17.190;2022-10-31T07:52:29;100798.25;;;8.81;97.50
41706;BME280;27385;51.096;17.190;2022-10-31T07:55:01;100797.60;;;8.94;97.90
41706;BME280;27385;51.096;17.190;2022-10-31T07:57:32;100798.95;;;9.08;98.08
41706;BME280;27385;51.096;17.190;2022-10-31T08:00:04;100798.37;;;9.20;98.36
41706;BME280;27385;51.096;17.190;2022-10-31T08:02:36;100797.99;;;9.34;98.86
41706;BME280;27385;51.096;17.190;2022-10-31T08:05:08;100800.17;;;9.47;99.08
41706;BME280;27385;51.096;17.190;2022-10-31T08:07:39;100802.77;;;9.60;99.14
41706;BME280;27385;51.096;17.190;2022-10-31T08:10:11;100806.98;;;9.74;99.66
41706;BME280;27385;51.096;17.190;2022-10-31T08:12:43;100803.84;;;9.90;99.78
41706;BME280;27385;51.096;17.190;2022-10-31T08:15:14;100800.17;;;10.06;99.82
41706;BME280;27385;51.096;17.190;2022-10-31T08:17:46;100800.37;;;10.21;99.66
41706;BME280;27385;51.096;17.190;2022-10-31T08:20:18;100796.30;;;10.36;99.77
41706;BME280;27385;51.096;17.190;2022-10-31T08:22:58;100794.46;;;10.53;99.64
41706;BME280;27385;51.096;17.190;2022-10-31T08:25:32;100797.66;;;10.68;99.83
41706;BME280;27385;51.096;17.190;2022-10-31T08:28:04;100806.63;;;10.85;99.59
41706;BME280;27385;51.096;17.190;2022-10-31T08:30:37;100807.26;;;10.96;99.14
41706;BME280;27385;51.096;17.190;2022-10-31T08:33:11;100809.33;;;11.07;99.08
41706;BME280;27385;51.096;17.190;2022-10-31T08:35:44;100812.20;;;11.20;98.97
41706;BME280;27385;51.096;17.190;2022-10-31T08:38:15;100808.66;;;11.33;98.83
41706;BME280;27385;51.096;17.190;2022-10-31T08:40:49;100807.09;;;11.46;98.85
41706;BME280;27385;51.096;17.190;2022-10-31T08:43:20;100809.65;;;11.59;98.59
41706;BME280;27385;51.096;17.190;2022-10-31T08:45:51;100812.01;;;11.73;98.28
41706;BME280;27385;51.096;17.190;2022-10-31T08:48:24;100804.85;;;11.92;97.78
41706;BME280;27385;51.096;17.190;2022-10-31T08:50:57;100811.91;;;12.14;97.06
41706;BME280;27385;51.096;17.190;2022-10-31T08:53:30;100808.62;;;12.32;96.33
41706;BME280;27385;51.096;17.190;2022-10-31T08:56:02;100807.52;;;12.48;96.04
41706;BME280;27385;51.096;17.190;2022-10-31T08:58:33;100811.08;;;12.64;96.04
41706;BME280;27385;51.096;17.190;2022-10-31T09:01:05;100811.75;;;12.82;95.74
41706;BME280;27385;51.096;17.190;2022-10-31T09:03:36;100809.48;;;12.96;95.42
41706;BME280;27385;51.096;17.190;2022-10-31T09:06:09;100806.27;;;13.12;95.21
41706;BME280;27385;51.096;17.190;2022-10-31T09:08:40;100803.97;;;13.25;94.84
41706;BME280;27385;51.096;17.190;2022-10-31T09:11:12;100805.42;;;13.43;94.37
41706;BME280;27385;51.096;17.190;2022-10-31T09:13:43;100805.17;;;13.58;93.87
41706;BME280;27385;51.096;17.190;2022-10-31T09:16:14;100808.47;;;13.77;93.59
41706;BME280;27385;51.096;17.190;2022-10-31T09:18:48;100808.81;;;13.97;92.20
41706;BME280;27385;51.096;17.190;2022-10-31T09:21:19;100805.27;;;14.17;91.50
41706;BME280;27385;51.096;17.190;2022-10-31T09:23:51;100812.70;;;14.36;90.77
41706;BME280;27385;51.096;17.190;2022-10-31T09:26:24;100813.31;;;14.57;90.12
41706;BME280;27385;51.096;17.190;2022-10-31T09:28:55;100815.61;;;14.72;89.39
41706;BME280;27385;51.096;17.190;2022-10-31T09:31:27;100818.06;;;14.79;89.22
41706;BME280;27385;51.096;17.190;2022-10-31T09:33:59;100816.09;;;14.86;88.63
41706;BME280;27385;51.096;17.190;2022-10-31T09:36:30;100813.13;;;14.91;88.53
41706;BME280;27385;51.096;17.190;2022-10-31T09:39:01;100814.52;;;14.97;88.74
41706;BME280;27385;51.096;17.190;2022-10-31T09:41:45;100816.05;;;15.06;88.28
41706;BME280;27385;51.096;17.190;2022-10-31T09:44:26;100819.39;;;15.13;87.55
41706;BME280;27385;51.096;17.190;2022-10-31T09:47:08;100819.19;;;15.19;87.68
41706;BME280;27385;51.096;17.190;2022-10-31T09:49:58;100820.62;;;15.24;87.46
41706;BME280;27385;51.096;17.190;2022-10-31T09:52:35;100820.16;;;15.30;86.72
41706;BME280;27385;51.096;17.190;2022-10-31T09:55:16;100820.09;;;15.43;86.29
41706;BME280;27385;51.096;17.190;2022-10-31T09:57:49;100823.43;;;15.57;85.86
41706;BME280;27385;51.096;17.190;2022-10-31T10:00:22;100822.92;;;15.70;85.66
41706;BME280;27385;51.096;17.190;2022-10-31T10:02:59;100819.37;;;15.82;83.96
41706;BME280;27385;51.096;17.190;2022-10-31T10:05:40;100819.89;;;15.92;84.16
41706;BME280;27385;51.096;17.190;2022-10-31T10:08:16;100816.98;;;15.99;84.29
41706;BME280;27385;51.096;17.190;2022-10-31T10:10:54;100816.33;;;16.09;82.34
41706;BME280;27385;51.096;17.190;2022-10-31T10:13:44;100816.02;;;16.18;83.45
41706;BME280;27385;51.096;17.190;2022-10-31T10:16:38;100812.52;;;16.27;83.18
41706;BME280;27385;51.096;17.190;2022-10-31T10:19:21;100813.29;;;16.38;82.52
41706;BME280;27385;51.096;17.190;2022-10-31T10:22:05;100816.30;;;16.46;82.50
41706;BME280;27385;51.096;17.190;2022-10-31T10:24:55;100812.05;;;16.47;82.08
41706;BME280;27385;51.096;17.190;2022-10-31T10:27:31;100807.89;;;16.51;82.01
41706;BME280;27385;51.096;17.190;2022-10-31T10:30:17;100804.21;;;16.54;81.65
41706;BME280;27385;51.096;17.190;2022-10-31T10:32:52;100803.42;;;16.61;81.80
41706;BME280;27385;51.096;17.190;2022-10-31T10:35:27;100802.57;;;16.67;81.09
41706;BME280;27385;51.096;17.190;2022-10-31T10:38:08;100800.08;;;16.74;80.50
41706;BME280;27385;51.096;17.190;2022-10-31T10:40:41;100797.19;;;16.81;80.82
41706;BME280;27385;51.096;17.190;2022-10-31T10:43:21;100795.23;;;16.84;80.58
41706;BME280;27385;51.096;17.190;2022-10-31T10:46:00;100795.86;;;16.88;80.27
41706;BME280;27385;51.096;17.190;2022-10-31T10:48:58;100793.94;;;16.97;79.99
41706;BME280;27385;51.096;17.190;2022-10-31T10:51:40;100797.17;;;17.04;79.36
41706;BME280;27385;51.096;17.190;2022-10-31T10:54:46;100794.61;;;17.09;79.10
41706;BME280;27385;51.096;17.190;2022-10-31T10:57:35;100788.62;;;17.13;78.60
41706;BME280;27385;51.096;17.190;2022-10-31T11:00:18;100783.86;;;17.19;78.58
41706;BME280;27385;51.096;17.190;2022-10-31T11:02:51;100779.23;;;17.27;78.41
41706;BME280;27385;51.096;17.190;2022-10-31T11:05:35;100777.96;;;17.33;77.93
41706;BME280;27385;51.096;17.190;2022-10-31T11:08:08;100775.14;;;17.39;77.36
41706;BME280;27385;51.096;17.190;2022-10-31T11:10:40;100774.52;;;17.43;77.20
41706;BME280;27385;51.096;17.190;2022-10-31T11:13:22;100775.69;;;17.48;76.74
41706;BME280;27385;51.096;17.190;2022-10-31T11:16:00;100774.34;;;17.53;77.08
41706;BME280;27385;51.096;17.190;2022-10-31T11:18:34;100774.74;;;17.60;76.86
41706;BME280;27385;51.096;17.190;2022-10-31T11:21:17;100771.66;;;17.65;76.66
41706;BME280;27385;51.096;17.190;2022-10-31T11:23:50;100766.77;;;17.71;76.34
41706;BME280;27385;51.096;17.190;2022-10-31T11:26:22;100768.14;;;17.77;75.75
41706;BME280;27385;51.096;17.190;2022-10-31T11:28:59;100762.70;;;17.79;75.44
41706;BME280;27385;51.096;17.190;2022-10-31T11:31:34;100762.99;;;17.84;75.39
41706;BME280;27385;51.096;17.190;2022-10-31T11:34:12;100762.41;;;17.92;75.16
41706;BME280;27385;51.096;17.190;2022-10-31T11:36:45;100757.98;;;18.00;74.44
41706;BME280;27385;51.096;17.190;2022-10-31T11:39:20;100759.17;;;18.10;74.46
41706;BME280;27385;51.096;17.190;2022-10-31T11:41:59;100759.30;;;18.15;74.15
41706;BME280;27385;51.096;17.190;2022-10-31T11:44:33;100754.06;;;18.17;73.87
41706;BME280;27385;51.096;17.190;2022-10-31T11:47:13;100751.63;;;18.21;73.89
41706;BME280;27385;51.096;17.190;2022-10-31T11:49:47;100754.27;;;18.29;73.82
41706;BME280;27385;51.096;17.190;2022-10-31T11:52:22;100753.95;;;18.32;73.35
41706;BME280;27385;51.096;17.190;2022-10-31T11:54:58;100751.11;;;18.34;73.05
41706;BME280;27385;51.096;17.190;2022-10-31T11:57:32;100750.21;;;18.41;73.00
41706;BME280;27385;51.096;17.190;2022-10-31T12:00:19;100750.00;;;18.47;72.94
41706;BME280;27385;51.096;17.190;2022-10-31T12:02:51;100750.13;;;18.52;72.87
41706;BME280;27385;51.096;17.190;2022-10-31T12:05:35;100750.92;;;18.58;72.68
41706;BME280;27385;51.096;17.190;2022-10-31T12:08:11;100751.11;;;18.61;72.57
41706;BME280;27385;51.096;17.190;2022-10-31T12:10:51;100754.84;;;18.65;71.84
41706;BME280;27385;51.096;17.190;2022-10-31T12:13:34;100749.61;;;18.71;71.27
41706;BME280;27385;51.096;17.190;2022-10-31T12:16:12;100752.55;;;18.78;70.62
41706;BME280;27385;51.096;17.190;2022-10-31T12:18:59;100751.95;;;18.84;70.64
41706;BME280;27385;51.096;17.190;2022-10-31T12:21:58;100753.01;;;18.88;70.76
41706;BME280;27385;51.096;17.190;2022-10-31T12:24:41;100749.73;;;18.90;70.69
41706;BME280;27385;51.096;17.190;2022-10-31T12:27:26;100748.20;;;18.92;70.55
41706;BME280;27385;51.096;17.190;2022-10-31T12:30:17;100747.64;;;18.90;70.35
41706;BME280;27385;51.096;17.190;2022-10-31T12:32:59;100745.69;;;18.89;70.35
41706;BME280;27385;51.096;17.190;2022-10-31T12:35:43;100748.46;;;18.90;70.38
41706;BME280;27385;51.096;17.190;2022-10-31T12:38:33;100746.86;;;18.91;70.09
41706;BME280;27385;51.096;17.190;2022-10-31T12:41:26;100747.11;;;18.92;70.10
41706;BME280;27385;51.096;17.190;2022-10-31T12:44:05;100745.46;;;18.92;69.94
41706;BME280;27385;51.096;17.190;2022-10-31T12:46:51;100743.92;;;18.92;69.75
41706;BME280;27385;51.096;17.190;2022-10-31T12:49:41;100740.52;;;18.93;69.91
41706;BME280;27385;51.096;17.190;2022-10-31T12:52:31;100737.94;;;18.94;69.76
41706;BME280;27385;51.096;17.190;2022-10-31T12:55:14;100741.75;;;18.95;69.61
41706;BME280;27385;51.096;17.190;2022-10-31T12:57:51;100737.33;;;18.95;69.73
41706;BME280;27385;51.096;17.190;2022-10-31T13:00:23;100736.55;;;18.99;69.64
41706;BME280;27385;51.096;17.190;2022-10-31T13:03:00;100736.59;;;19.03;69.60
41706;BME280;27385;51.096;17.190;2022-10-31T13:05:39;100730.30;;;19.04;69.56
41706;BME280;27385;51.096;17.190;2022-10-31T13:08:14;100727.35;;;19.06;69.17
41706;BME280;27385;51.096;17.190;2022-10-31T13:10:50;100729.34;;;19.08;68.93
41706;BME280;27385;51.096;17.190;2022-10-31T13:13:26;100730.47;;;19.09;69.15
41706;BME280;27385;51.096;17.190;2022-10-31T13:16:01;100730.76;;;19.10;68.74
41706;BME280;27385;51.096;17.190;2022-10-31T13:18:47;100727.50;;;19.12;68.76
41706;BME280;27385;51.096;17.190;2022-10-31T13:21:23;100724.02;;;19.14;68.79
41706;BME280;27385;51.096;17.190;2022-10-31T13:23:57;100716.54;;;19.15;68.98
41706;BME280;27385;51.096;17.190;2022-10-31T13:26:35;100719.40;;;19.18;68.85
41706;BME280;27385;51.096;17.190;2022-10-31T13:29:15;100717.71;;;19.20;69.00